createdAt,value
2022-09-03T00:02:35.000Z,1.8
2022-09-03T00:07:35.000Z,1.94
2022-09-03T00:12:35.000Z,2.22
2022-09-03T00:17:34.000Z,2.04
2022-09-03T00:27:35.000Z,2.08
2022-09-03T00:32:35.000Z,2.03
2022-09-03T00:37:36.000Z,2.28
2022-09-03T00:42:35.000Z,1.89
2022-09-03T00:47:35.000Z,2.16
2022-09-03T00:52:34.000Z,2.31
2022-09-03T00:57:35.000Z,2.33
2022-09-03T01:02:35.000Z,2.56
2022-09-03T01:07:35.000Z,2.56
2022-09-03T01:12:35.000Z,2.39
2022-09-03T01:17:35.000Z,2.05
2022-09-03T01:22:35.000Z,2.08
2022-09-03T01:27:34.000Z,2.08
2022-09-03T01:32:34.000Z,1.96
2022-09-03T01:37:35.000Z,2.4
2022-09-03T01:42:35.000Z,2.55
2022-09-03T01:47:35.000Z,3.22
2022-09-03T01:52:34.000Z,2.96
2022-09-03T01:57:47.000Z,2.47
2022-09-03T02:02:35.000Z,1.89
2022-09-03T02:07:35.000Z,2.03
2022-09-03T02:12:34.000Z,1.95
2022-09-03T02:17:35.000Z,1.89
2022-09-03T02:22:34.000Z,1.89
2022-09-03T02:27:34.000Z,2.21
2022-09-03T02:32:35.000Z,2.26
2022-09-03T02:37:35.000Z,2.38
2022-09-03T02:42:35.000Z,2.84
2022-09-03T02:47:35.000Z,2.92
2022-09-03T02:52:35.000Z,3.29
2022-09-03T02:57:37.000Z,2.98
2022-09-03T03:02:35.000Z,2.88
2022-09-03T03:07:35.000Z,2.67
2022-09-03T03:12:34.000Z,2.76
2022-09-03T03:17:34.000Z,2.77
2022-09-03T03:22:35.000Z,2.82
2022-09-03T03:27:34.000Z,2.66
2022-09-03T03:32:34.000Z,2.36
2022-09-03T03:37:35.000Z,2.36
2022-09-03T03:42:34.000Z,2.9
2022-09-03T03:47:34.000Z,3.04
2022-09-03T03:52:34.000Z,2.81
2022-09-03T03:57:34.000Z,3.54
2022-09-03T04:02:34.000Z,3.19
2022-09-03T04:07:35.000Z,3.16
2022-09-03T04:12:34.000Z,3.22
2022-09-03T04:17:35.000Z,2.89
2022-09-03T04:22:34.000Z,4
2022-09-03T04:27:35.000Z,3.94
2022-09-03T04:32:35.000Z,4.11
2022-09-03T04:37:34.000Z,3.75
2022-09-03T04:42:35.000Z,3.39
2022-09-03T04:47:35.000Z,3.26
2022-09-03T04:52:34.000Z,3.26
2022-09-03T04:57:35.000Z,2.95
2022-09-03T05:02:34.000Z,3.13
2022-09-03T05:07:35.000Z,2.85
2022-09-03T05:12:35.000Z,2.79
2022-09-03T05:17:34.000Z,3.09
2022-09-03T05:22:34.000Z,3.63
2022-09-03T05:27:35.000Z,3.55
2022-09-03T05:32:34.000Z,3.86
2022-09-03T05:37:34.000Z,3.61
2022-09-03T05:42:34.000Z,4.56
2022-09-03T05:47:35.000Z,5.18
2022-09-03T05:52:35.000Z,3.54
2022-09-03T05:57:34.000Z,1.64
2022-09-03T06:02:34.000Z,1.26
2022-09-03T06:07:35.000Z,1.26
2022-09-03T06:12:34.000Z,1.55
2022-09-03T06:17:34.000Z,2.03
2022-09-03T06:22:36.000Z,1.35
2022-09-03T06:27:34.000Z,0.97
2022-09-03T06:32:34.000Z,1.68
2022-09-03T06:37:35.000Z,1.43
2022-09-03T06:42:34.000Z,1.02
2022-09-03T06:47:34.000Z,1.2
2022-09-03T06:52:35.000Z,1.02
2022-09-03T06:57:34.000Z,0.87
2022-09-03T07:02:34.000Z,0.81
2022-09-03T07:07:35.000Z,0.88
2022-09-03T07:12:34.000Z,0.61
2022-09-03T07:17:34.000Z,0.9
2022-09-03T07:22:41.000Z,0.79
2022-09-03T07:27:35.000Z,0.79
2022-09-03T07:32:34.000Z,0.91
2022-09-03T07:37:35.000Z,0.9
2022-09-03T07:42:34.000Z,0.81
2022-09-03T07:47:37.000Z,0.86
2022-09-03T07:52:35.000Z,0.75
2022-09-03T07:57:35.000Z,0.68
2022-09-03T08:02:35.000Z,0.48
2022-09-03T08:07:37.000Z,1
2022-09-03T08:12:35.000Z,0.78
2022-09-03T08:17:35.000Z,0.91
2022-09-03T08:22:34.000Z,0.84
2022-09-03T08:27:34.000Z,0.91
2022-09-03T08:32:35.000Z,0.53
2022-09-03T08:42:35.000Z,0.91
2022-09-03T08:47:35.000Z,0.84
2022-09-03T08:52:34.000Z,0.28
2022-09-03T08:57:35.000Z,0.92
2022-09-03T09:02:35.000Z,1.04
2022-09-03T09:07:35.000Z,0.62
2022-09-03T09:17:34.000Z,0.84
2022-09-03T09:22:34.000Z,0.97
2022-09-03T09:27:34.000Z,1.17
2022-09-03T09:32:34.000Z,1.34
2022-09-03T09:37:35.000Z,1.72
2022-09-03T09:42:35.000Z,2.3
2022-09-03T09:47:35.000Z,1.44
2022-09-03T09:52:34.000Z,1.58
2022-09-03T09:57:35.000Z,1.58
2022-09-03T10:02:35.000Z,1.13
2022-09-03T10:07:35.000Z,2.34
2022-09-03T10:12:34.000Z,3.5
2022-09-03T10:17:47.000Z,1.33
2022-09-03T10:22:36.000Z,1.01
2022-09-03T10:27:35.000Z,1.39
2022-09-03T10:37:34.000Z,1.19
2022-09-03T10:42:35.000Z,1.53
2022-09-03T10:47:35.000Z,1.49
2022-09-03T10:52:35.000Z,1.63
2022-09-03T10:57:35.000Z,1.26
2022-09-03T11:02:35.000Z,1.42
2022-09-03T11:07:35.000Z,2.5
2022-09-03T11:12:34.000Z,1.68
2022-09-03T11:17:34.000Z,2.16
2022-09-03T11:22:34.000Z,2.27
2022-09-03T11:27:35.000Z,1.75
2022-09-03T11:32:35.000Z,1.04
2022-09-03T11:37:34.000Z,0.88
2022-09-03T11:42:35.000Z,0.88
2022-09-03T11:47:35.000Z,1.52
2022-09-03T11:52:34.000Z,1.05
2022-09-03T11:57:34.000Z,1.18
2022-09-03T12:02:38.000Z,1.66
2022-09-03T12:07:35.000Z,1.67
2022-09-03T12:12:34.000Z,0.98
2022-09-03T12:17:35.000Z,0.93
2022-09-03T12:22:35.000Z,1.07
2022-09-03T12:27:35.000Z,1.46
2022-09-03T12:32:34.000Z,1.57
2022-09-03T12:38:06.000Z,1.19
2022-09-03T12:42:34.000Z,6.48
2022-09-03T12:47:48.000Z,1.38
2022-09-03T12:52:35.000Z,1.38
2022-09-03T12:57:35.000Z,1.43
2022-09-03T13:02:35.000Z,1.2
2022-09-03T13:07:35.000Z,1.11
2022-09-03T13:12:36.000Z,1.28
2022-09-03T13:17:34.000Z,1.16
2022-09-03T13:22:34.000Z,1.65
2022-09-03T13:27:34.000Z,1.09
2022-09-03T13:32:35.000Z,1.16
2022-09-03T13:37:34.000Z,1.58
2022-09-03T13:42:35.000Z,2.64
2022-09-03T13:47:34.000Z,2.33
2022-09-03T13:52:35.000Z,1.85
2022-09-03T13:57:35.000Z,1.23
2022-09-03T14:02:35.000Z,2.2
2022-09-03T14:07:36.000Z,2.2
2022-09-03T14:12:35.000Z,1.47
2022-09-03T14:17:35.000Z,1.51
2022-09-03T14:22:34.000Z,2.72
2022-09-03T14:27:35.000Z,1.56
2022-09-03T14:32:34.000Z,1.31
2022-09-03T14:37:35.000Z,1.75
2022-09-03T14:42:35.000Z,1.48
2022-09-03T14:47:35.000Z,1.68
2022-09-03T14:52:34.000Z,2.11
2022-09-03T14:57:35.000Z,1.97
2022-09-03T15:02:34.000Z,2.1
2022-09-03T15:07:35.000Z,2.4
2022-09-03T15:12:34.000Z,2.13
2022-09-03T15:17:35.000Z,2.38
2022-09-03T15:22:34.000Z,2.38
2022-09-03T15:27:35.000Z,3.23
2022-09-03T15:32:35.000Z,2.54
2022-09-03T15:37:34.000Z,2.97
2022-09-03T15:42:34.000Z,2.51
2022-09-03T15:47:37.000Z,2.69
2022-09-03T15:52:35.000Z,3.15
2022-09-03T15:57:35.000Z,3.37
2022-09-03T16:02:35.000Z,3.94
2022-09-03T16:07:35.000Z,4.62
2022-09-03T16:12:35.000Z,12.14
2022-09-03T16:17:34.000Z,17.11
2022-09-03T16:22:34.000Z,20.41
2022-09-03T16:27:35.000Z,22.98
2022-09-03T16:32:34.000Z,20.42
2022-09-03T16:37:35.000Z,14.22
2022-09-03T16:42:35.000Z,14.22
2022-09-03T16:52:48.000Z,8.81
2022-09-03T16:57:35.000Z,11.23
2022-09-03T17:02:51.000Z,16.83
2022-09-03T17:07:34.000Z,20.23
2022-09-03T17:12:35.000Z,20.51
2022-09-03T17:22:35.000Z,17.98
2022-09-03T17:27:34.000Z,16.19
2022-09-03T17:32:34.000Z,15.31
2022-09-03T17:37:35.000Z,15.89
2022-09-03T17:42:35.000Z,15.41
2022-09-03T17:47:34.000Z,15.9
2022-09-03T17:52:35.000Z,14.67
2022-09-03T17:57:35.000Z,13.94
2022-09-03T18:02:35.000Z,13.94
2022-09-03T18:07:34.000Z,14.55
2022-09-03T18:12:35.000Z,14.82
2022-09-03T18:17:35.000Z,15.56
2022-09-03T18:22:35.000Z,15.69
2022-09-03T18:27:35.000Z,13.47
2022-09-03T18:32:34.000Z,15
2022-09-03T18:37:35.000Z,11.3
2022-09-03T18:42:35.000Z,9.6
2022-09-03T18:48:14.000Z,8.13
2022-09-03T18:52:35.000Z,8.31
2022-09-03T18:57:36.000Z,7.22
2022-09-03T19:02:35.000Z,8.47
2022-09-03T19:07:35.000Z,13.93
2022-09-03T19:12:34.000Z,13.93
2022-09-03T19:17:34.000Z,17.65
2022-09-03T19:22:35.000Z,15.49
2022-09-03T19:28:05.000Z,16.29
2022-09-03T19:32:35.000Z,16.1
2022-09-03T19:37:35.000Z,13.83
2022-09-03T19:42:35.000Z,9.03
2022-09-03T19:47:35.000Z,9.66
2022-09-03T19:52:35.000Z,9.02
2022-09-03T19:57:35.000Z,10.2
2022-09-03T20:02:35.000Z,13.48
2022-09-03T20:07:34.000Z,15.91
2022-09-03T20:12:34.000Z,16.72
2022-09-03T20:17:35.000Z,18.57
2022-09-03T20:22:34.000Z,19.11
2022-09-03T20:27:34.000Z,19.11
2022-09-03T20:32:35.000Z,17.62
2022-09-03T20:37:35.000Z,18.6
2022-09-03T20:42:35.000Z,18.2
2022-09-03T20:47:38.000Z,17.75
2022-09-03T20:52:35.000Z,17.74
2022-09-03T20:57:35.000Z,17.17
2022-09-03T21:07:35.000Z,16.65
2022-09-03T21:12:35.000Z,17.64
2022-09-03T21:17:35.000Z,17.79
2022-09-03T21:22:34.000Z,16.12
2022-09-03T21:27:35.000Z,16.12
2022-09-03T21:32:35.000Z,14.34
2022-09-03T21:37:35.000Z,14.33
2022-09-03T21:42:35.000Z,16.21
2022-09-03T21:47:35.000Z,17.2
2022-09-03T21:52:35.000Z,17.39
2022-09-03T21:57:35.000Z,17.98
2022-09-03T22:02:35.000Z,16.98
2022-09-03T22:07:34.000Z,16.92
2022-09-03T22:12:34.000Z,16.34
2022-09-03T22:17:35.000Z,15.91
2022-09-03T22:22:35.000Z,14.42
2022-09-03T22:27:34.000Z,11.78
2022-09-03T22:32:35.000Z,9.04
2022-09-03T22:37:34.000Z,7.46
2022-09-03T22:42:35.000Z,7.46
2022-09-03T22:47:35.000Z,7.89
2022-09-03T22:52:35.000Z,10.79
2022-09-03T22:57:34.000Z,10.12
2022-09-03T23:02:35.000Z,9.14
2022-09-03T23:12:34.000Z,8.44
2022-09-03T23:22:34.000Z,7.97
2022-09-03T23:27:35.000Z,7.97
2022-09-03T23:32:43.000Z,8.39
2022-09-03T23:37:44.000Z,8.09
2022-09-03T23:42:35.000Z,8.25
2022-09-03T23:47:35.000Z,7.35
2022-09-03T23:52:35.000Z,7.82
2022-09-03T23:57:35.000Z,8.14
